Latest Weather Observations for Rocky Gully South

IDW60801

Issued at 5:05 pm WST Tuesday 2 September 2014 (issued every 30 minutes, with the page automatically refreshed every 10 minutes)

About weather observations | Map of weather stations | Latest weather observations for WA | Other Formats
Station Details ID: 009964 Name: ROCKY GULLY Lat: -34.57 Lon: 117.01 Height: 250.0 m
Data from the previous 72 hours. | See also: Recent months at Rocky Gully South
Date/Time
WST
Temp
°C
App
Temp
°C
Dew
Point
Rel
Hum
%
Delta-T
°C
Wind Press
QNH
hPa
Press
MSL
hPa
Rain
since 9 am
mm
Dir
 
Spd
km/h
Gust
km/h
Spd
kts
Gust
kts
02/05:00pm 14.1 12.2 7.6 65 3.2 SW 7 11 4 6 - - 0.0
02/04:30pm 14.6 11.8 6.9 60 3.8 SSW 11 17 6 9 - - 0.0
02/04:00pm 14.9 13.6 9.3 69 2.9 W 6 9 3 5 - - 0.0
02/03:30pm 15.3 13.3 8.8 65 3.4 WSW 9 17 5 9 - - 0.0
02/03:00pm 15.1 13.6 9.2 68 3.1 W 7 13 4 7 - - 0.0
02/02:30pm 15.1 13.3 9.5 69 2.9 W 9 13 5 7 - - 0.0
02/02:00pm 15.9 14.7 10.2 69 3.0 NW 7 11 4 6 - - 0.0
02/01:30pm 15.1 13.6 9.2 68 3.1 WNW 7 11 4 6 - - 0.0
02/01:00pm 14.0 12.0 8.6 70 2.8 NNW 9 13 5 7 - - 0.0
02/12:30pm 13.5 11.9 8.6 72 2.5 NNW 7 11 4 6 - - 0.0
02/12:00pm 13.6 11.8 8.0 69 2.8 N 7 11 4 6 - - 0.0
02/11:30am 13.3 11.5 8.0 70 2.7 N 7 11 4 6 - - 0.0
02/11:00am 12.6 10.8 7.9 73 2.3 N 7 13 4 7 - - 0.0
02/10:30am 12.2 9.8 7.1 71 2.5 NNW 9 11 5 6 - - 0.0
02/10:00am 11.1 7.8 6.5 73 2.2 N 13 20 7 11 - - 0.0
02/09:30am 10.9 7.5 6.1 72 2.3 N 13 20 7 11 - - 0.0
02/09:00am 10.2 7.6 6.0 75 2.0 N 9 15 5 8 - - 0.0
02/08:30am 9.3 6.6 5.7 78 1.7 N 9 15 5 8 - - 0.0
02/08:00am 8.8 6.6 5.5 80 1.5 N 6 7 3 4 - - 0.0
02/07:30am 8.6 6.3 5.0 78 1.6 N 6 9 3 5 - - 0.0
02/07:00am 8.3 5.0 4.7 78 1.6 NNE 11 17 6 9 - - 0.0
02/06:30am 8.2 5.3 4.6 78 1.6 NNE 9 11 5 6 - - 0.0
02/06:00am 8.2 5.2 4.2 76 1.8 NNE 9 15 5 8 - - 0.0
02/05:30am 8.2 5.3 4.4 77 1.7 NNE 9 15 5 8 - - 0.0
02/05:00am 7.7 5.3 4.3 79 1.5 NNE 6 9 3 5 - - 0.0
02/04:30am 7.7 5.3 4.3 79 1.5 NE 6 7 3 4 - - 0.0
02/04:00am 7.6 6.2 3.8 77 1.7 CALM 0 2 0 1 - - 0.0
02/03:30am 8.0 5.5 3.7 74 1.9 NNE 6 11 3 6 - - 0.0
02/03:00am 8.1 5.0 3.4 72 2.0 NNE 9 13 5 7 - - 0.0
02/02:30am 8.6 5.8 3.4 70 2.3 NNE 7 13 4 7 - - 0.0
02/02:00am 8.3 5.5 3.0 69 2.3 NE 7 13 4 7 - - 0.0
02/01:30am 8.5 5.2 2.7 67 2.5 NE 9 15 5 8 - - 0.0
02/01:00am 8.8 5.5 2.4 64 2.7 NE 9 15 5 8 - - 0.0
02/12:30am 9.0 5.7 2.3 63 2.9 NE 9 13 5 7 - - 0.0
02/12:00am 9.2 5.9 2.5 63 2.9 NE 9 15 5 8 - - 0.0
 
Date/Time
WST
Temp
°C
App
Temp
°C
Dew
Point
Rel
Hum
%
Delta-T
°C
Wind Press
QNH
hPa
Press
MSL
hPa
Rain
since 9 am
mm
Dir
 
Spd
km/h
Gust
km/h
Spd
kts
Gust
kts
01/11:30pm 8.3 5.6 2.8 68 2.4 NE 6 9 3 5 - - 0.0
01/11:00pm 8.8 5.9 2.6 65 2.7 NE 7 11 4 6 - - 0.0
01/10:30pm 8.6 5.7 2.6 66 2.6 NE 7 13 4 7 - - 0.0
01/10:00pm 8.7 5.8 2.7 66 2.6 NE 7 13 4 7 - - 0.0
01/09:30pm 9.2 6.3 2.8 64 2.8 ENE 7 11 4 6 - - 0.0
01/09:00pm 8.9 6.0 2.7 65 2.7 NE 7 11 4 6 - - 0.0
01/08:30pm 8.8 6.0 3.2 68 2.4 ENE 7 13 4 7 - - 0.0
01/08:00pm 8.2 5.4 3.3 71 2.1 NNE 7 11 4 6 - - 0.0
01/07:30pm 8.0 5.5 3.5 73 2.0 N 6 9 3 5 - - 0.0
01/07:00pm 8.3 5.7 3.4 71 2.1 NNE 6 9 3 5 - - 0.0
01/06:30pm 9.3 6.8 3.5 67 2.5 NE 6 7 3 4 - - 0.0
01/06:00pm 9.9 7.2 3.9 66 2.7 NNE 7 9 4 5 - - 0.0
01/05:30pm 11.1 8.5 3.2 58 3.5 NNE 6 11 3 6 - - 0.0
01/05:00pm 12.7 9.3 2.0 48 4.7 N 9 15 5 8 - - 0.0
01/04:30pm 14.1 10.8 2.4 45 5.2 N 9 13 5 7 - - 0.0
01/04:00pm 13.4 10.1 2.3 47 4.9 NNE 9 17 5 9 - - 0.0
01/03:30pm 13.5 10.3 3.3 50 4.6 N 9 13 5 7 - - 0.0
01/03:00pm 14.0 10.4 2.9 47 5.0 N 11 19 6 10 - - 0.0
01/02:30pm 13.8 9.9 1.1 42 5.5 N 11 17 6 9 - - 0.0
01/02:00pm 13.9 11.1 3.1 48 4.9 N 7 17 4 9 - - 0.0
01/01:30pm 13.2 9.8 1.8 46 5.0 NNW 9 19 5 10 - - 0.0
01/01:00pm 13.4 10.1 2.3 47 4.9 N 9 17 5 9 - - 0.0
01/12:30pm 12.3 8.4 1.3 47 4.7 N 11 17 6 9 - - 0.0
01/12:00pm 12.4 8.4 2.8 52 4.3 NNW 13 20 7 11 - - 0.0
01/11:30am 12.7 9.4 4.4 57 3.8 N 11 17 6 9 - - 0.0
01/11:00am 11.5 8.7 3.0 56 3.8 N 7 13 4 7 - - 0.0
01/10:30am 10.9 7.2 2.5 56 3.7 NNE 11 17 6 9 - - 0.0
01/10:00am 9.7 6.6 3.7 66 2.7 N 9 15 5 8 - - 0.0
01/09:30am 9.7 6.9 5.1 73 2.1 N 9 15 5 8 - - 0.0
01/09:00am 8.7 6.3 7.0 89 0.8 N 9 13 5 7 - - 4.0
01/08:30am 7.0 4.8 6.1 94 0.4 N 7 9 4 5 - - 4.0
01/08:00am 5.5 3.0 4.8 95 0.3 N 7 9 4 5 - - 4.0
01/07:30am 3.6 0.8 3.0 96 0.2 N 7 9 4 5 - - 4.0
01/07:00am 2.8 -0.2 2.1 95 0.3 N 7 9 4 5 - - 3.8
01/06:30am 2.9 -0.1 2.2 95 0.3 N 7 9 4 5 - - 3.8
01/06:00am 2.9 -0.1 2.2 95 0.3 N 7 9 4 5 - - 3.8
01/05:30am 2.5 -0.5 1.8 95 0.3 N 7 9 4 5 - - 3.8
01/05:00am 3.0 0.0 2.3 95 0.3 N 7 9 4 5 - - 3.8
01/04:30am 2.7 -0.3 2.0 95 0.3 N 7 11 4 6 - - 3.8
01/04:00am 2.2 -0.9 1.5 95 0.3 N 7 11 4 6 - - 3.8
01/03:30am 1.5 -1.7 0.8 95 0.3 N 7 9 4 5 - - 3.8
01/03:00am 2.4 0.7 1.7 95 0.3 CALM 0 7 0 4 - - 3.8
01/02:30am 2.0 -0.2 1.3 95 0.3 N 2 7 1 4 - - 3.8
01/02:00am 2.2 -0.7 1.3 94 0.3 N 6 7 3 4 - - 3.8
01/01:30am 2.1 0.3 1.2 94 0.3 CALM 0 0 0 0 - - 3.8
01/01:00am 2.7 1.0 1.8 94 0.4 CALM 0 0 0 0 - - 3.8
01/12:30am 2.9 1.2 2.0 94 0.4 CALM 0 0 0 0 - - 3.8
01/12:00am 3.3 1.7 2.4 94 0.4 CALM 0 0 0 0 - - 3.8
 
Date/Time
WST
Temp
°C
App
Temp
°C
Dew
Point
Rel
Hum
%
Delta-T
°C
Wind Press
QNH
hPa
Press
MSL
hPa
Rain
since 9 am
mm
Dir
 
Spd
km/h
Gust
km/h
Spd
kts
Gust
kts
31/11:30pm 4.0 2.5 3.1 94 0.4 CALM 0 0 0 0 - - 3.8
31/11:00pm 3.5 1.9 2.5 93 0.4 CALM 0 0 0 0 - - 3.8
31/10:30pm 3.3 1.6 2.1 92 0.5 CALM 0 0 0 0 - - 3.8
31/10:00pm 4.0 2.5 2.8 92 0.5 CALM 0 0 0 0 - - 3.8
31/09:30pm 4.4 2.9 3.1 91 0.5 CALM 0 0 0 0 - - 3.8
31/09:00pm 4.6 3.2 3.3 91 0.5 CALM 0 0 0 0 - - 3.8
31/08:30pm 5.0 3.6 3.3 89 0.7 CALM 0 0 0 0 - - 3.8
31/08:00pm 5.9 4.6 4.1 88 0.8 CALM 0 0 0 0 - - 3.8
31/07:30pm 6.2 4.5 4.0 86 1.0 S 2 6 1 3 - - 3.8
31/07:00pm 6.9 5.3 4.6 85 1.0 SSW 2 9 1 5 - - 3.8
31/06:30pm 7.7 6.5 4.8 82 1.3 CALM 0 0 0 0 - - 3.8
31/06:00pm 8.8 6.5 5.0 77 1.7 S 6 9 3 5 - - 3.8
31/05:30pm 9.9 7.2 5.5 74 2.0 S 9 13 5 7 - - 3.8
31/05:00pm 10.7 7.7 6.1 73 2.2 S 11 19 6 10 - - 3.8
31/04:30pm 10.9 8.8 6.6 75 2.1 SSW 7 11 4 6 - - 3.8
31/04:00pm 10.8 10.3 8.0 83 1.4 CALM 0 2 0 1 - - 3.8
31/03:30pm 10.5 8.1 7.2 80 1.6 S 9 15 5 8 - - 3.8
31/03:00pm 10.9 8.8 6.8 76 2.0 S 7 11 4 6 - - 3.8
31/02:30pm 11.8 9.5 7.5 75 2.1 SW 9 15 5 8 - - 3.4
31/02:00pm 9.1 5.7 5.8 80 1.5 SSW 13 26 7 14 - - 3.4
31/01:30pm 11.8 7.9 5.4 65 3.0 SSW 15 22 8 12 - - 1.2
31/01:00pm 12.6 9.5 7.3 70 2.6 W 13 22 7 12 - - 1.2
31/12:30pm 12.0 10.0 8.5 79 1.8 SW 9 15 5 8 - - 1.0
31/12:00pm 9.0 6.9 6.6 85 1.1 SSW 7 13 4 7 - - 1.0
31/11:30am 13.2 10.1 5.4 59 3.7 W 11 20 6 11 - - 0.0
31/11:00am 10.9 7.8 5.7 70 2.4 W 11 19 6 10 - - 0.0
31/10:30am 12.6 9.3 6.6 67 2.9 WSW 13 19 7 10 - - 0.0
31/10:00am 11.5 8.6 6.6 72 2.4 SW 11 20 6 11 - - 0.0
31/09:30am 11.0 8.6 7.1 77 1.9 W 9 15 5 8 - - 0.0
31/09:00am 9.8 7.7 8.4 91 0.7 W 9 15 5 8 - - 2.2
31/08:30am 8.6 6.4 7.7 94 0.4 W 9 15 5 8 - - 2.2
31/08:00am 8.6 6.4 7.7 94 0.4 WNW 9 13 5 7 - - 2.2
31/07:30am 7.9 5.9 7.0 94 0.4 NNW 7 11 4 6 - - 2.2
31/07:00am 7.6 5.7 6.7 94 0.4 WNW 6 7 3 4 - - 2.2
31/06:30am 7.5 5.4 6.6 94 0.4 NW 7 11 4 6 - - 2.2
31/06:00am 7.8 5.8 6.9 94 0.4 NW 7 11 4 6 - - 2.2
31/05:30am 8.0 6.0 7.1 94 0.4 NW 7 11 4 6 - - 2.2
31/05:00am 8.0 6.0 7.1 94 0.4 NW 7 11 4 6 - - 2.2
31/04:30am 7.8 6.3 6.9 94 0.4 NNW 4 7 2 4 - - 2.0
31/04:00am 7.8 5.8 6.9 94 0.4 NNW 7 9 4 5 - - 1.8
31/03:30am 7.8 5.9 6.7 93 0.5 N 6 9 3 5 - - 1.8
31/03:00am 7.8 6.3 6.7 93 0.5 NNW 4 7 2 4 - - 1.8
31/02:30am 7.7 6.2 6.6 93 0.5 WSW 4 9 2 5 - - 1.6
31/02:00am 7.4 6.2 6.3 93 0.5 W 2 7 1 4 - - 1.2
31/01:30am 7.4 5.4 6.3 93 0.5 SSW 6 7 3 4 - - 0.6
31/01:00am 7.4 5.4 6.3 93 0.5 NNW 6 7 3 4 - - 0.6
31/12:30am 6.9 4.8 5.8 93 0.5 NNW 6 7 3 4 - - 0.6
31/12:00am 6.7 4.6 5.7 93 0.5 NW 6 7 3 4 - - 0.6
 
Date/Time
WST
Temp
°C
App
Temp
°C
Dew
Point
Rel
Hum
%
Delta-T
°C
Wind Press
QNH
hPa
Press
MSL
hPa
Rain
since 9 am
mm
Dir
 
Spd
km/h
Gust
km/h
Spd
kts
Gust
kts
30/11:30pm 6.9 4.8 5.8 93 0.5 N 6 9 3 5 - - 0.6
30/11:00pm 6.6 4.4 5.4 92 0.5 N 6 7 3 4 - - 0.6
30/10:30pm 7.0 6.0 5.8 92 0.5 CALM 0 0 0 0 - - 0.6
30/10:00pm 7.4 5.4 6.2 92 0.6 NNW 6 7 3 4 - - 0.6
30/09:30pm 7.1 5.4 5.7 91 0.6 WNW 4 7 2 4 - - 0.6
30/09:00pm 7.3 5.6 5.8 90 0.7 WNW 4 6 2 3 - - 0.6
30/08:30pm 7.4 5.3 5.7 89 0.8 N 6 7 3 4 - - 0.6
30/08:00pm 7.7 6.0 5.8 88 0.9 NW 4 6 2 3 - - 0.6
30/07:30pm 8.2 7.3 6.0 86 1.0 CALM 0 0 0 0 - - 0.6
30/07:00pm 8.8 7.9 6.1 83 1.3 CALM 0 0 0 0 - - 0.6
30/06:30pm 9.2 7.1 5.9 80 1.5 SW 6 7 3 4 - - 0.6
30/06:00pm 9.9 7.7 6.2 78 1.7 SW 7 11 4 6 - - 0.6
30/05:30pm 10.8 7.6 6.7 76 2.0 SW 13 22 7 12 - - 0.6

Other Formats:

Comma delimited format used in spreadsheet applications
http://www.bom.gov.au/fwo/IDW60801/IDW60801.94631.axf

JavaScript Object Notation format (JSON) in row-major order
http://www.bom.gov.au/fwo/IDW60801/IDW60801.94631.json